Time;durP1;ratioP1;P1;durP2;ratioP2;P2;SDS_P1;SDS_P2;PMS_P1;PMS_P2;Temp;Humidity;BMP_temperature;BMP_pressure;BME280_temperature;BME280_humidity;BME280_pressure;Samples;Min_cycle;Max_cycle;Signal;HPM_P1;HPM_P2
2022/10/05 00:00:26;;;;;;;7.32;5.35;;;;;;;;;;5091609;28;20052;-68
2022/10/05 00:02:53;;;;;;;6.15;5.00;;;;;;;;;;5092353;28;20101;-68
2022/10/05 00:05:22;;;;;;;6.32;5.00;;;;;;;;;;5090536;28;20101;-68
2022/10/05 00:07:50;;;;;;;8.23;5.20;;;;;;;;;;5090418;28;20566;-68
2022/10/05 00:10:18;;;;;;;6.70;5.40;;;;;;;;;;5073363;28;20529;-68
2022/10/05 00:12:45;;;;;;;8.32;5.35;;;;;;;;;;5091679;28;20084;-68
2022/10/05 00:15:14;;;;;;;9.48;5.72;;;;;;;;;;5091664;28;20048;-68
2022/10/05 00:17:41;;;;;;;10.75;5.53;;;;;;;;;;5091590;28;20048;-68
2022/10/05 00:20:19;;;;;;;11.43;6.65;;;;;;;;;;5090164;28;20044;-68
2022/10/05 00:22:45;;;;;;;10.82;6.20;;;;;;;;;;5091578;28;20052;-68
2022/10/05 00:25:18;;;;;;;7.22;5.65;;;;;;;;;;5090383;28;20071;-68
2022/10/05 00:27:47;;;;;;;8.50;6.20;;;;;;;;;;5090331;28;20513;-68
2022/10/05 00:30:16;;;;;;;8.80;5.57;;;;;;;;;;5070005;28;20084;-68
2022/10/05 00:32:44;;;;;;;6.30;5.70;;;;;;;;;;5071338;28;20091;-68
2022/10/05 00:35:11;;;;;;;6.95;5.72;;;;;;;;;;5072649;28;20080;-68
2022/10/05 00:37:38;;;;;;;7.80;5.90;;;;;;;;;;5075102;28;20084;-68
2022/10/05 00:40:29;;;;;;;8.63;5.97;;;;;;;;;;5082021;28;20078;-68
2022/10/05 00:43:09;;;;;;;7.80;6.10;;;;;;;;;;5075183;28;20090;-68
2022/10/05 00:45:51;;;;;;;10.30;6.38;;;;;;;;;;5090641;28;20094;-68
2022/10/05 00:48:27;;;;;;;7.03;5.40;;;;;;;;;;5073452;28;20404;-68
2022/10/05 00:51:06;;;;;;;8.65;6.45;;;;;;;;;;5094001;28;20071;-68
2022/10/05 00:53:42;;;;;;;9.30;6.28;;;;;;;;;;5094149;28;20094;-68
2022/10/05 00:56:34;;;;;;;9.50;6.68;;;;;;;;;;5095080;28;20094;-68
2022/10/05 00:59:28;;;;;;;8.98;7.15;;;;;;;;;;5093969;28;20377;-68
2022/10/05 01:02:15;;;;;;;11.63;6.75;;;;;;;;;;5093775;28;20418;-68
2022/10/05 01:04:56;;;;;;;8.30;6.78;;;;;;;;;;5093541;28;20519;-68
2022/10/05 01:07:32;;;;;;;10.02;6.28;;;;;;;;;;5077596;28;20117;-68
2022/10/05 01:10:08;;;;;;;11.40;6.50;;;;;;;;;;5094209;28;20097;-68
2022/10/05 01:12:55;;;;;;;8.23;6.30;;;;;;;;;;5094858;28;20079;-68
2022/10/05 01:15:38;;;;;;;8.57;6.30;;;;;;;;;;5093548;28;20087;-68
2022/10/05 01:18:13;;;;;;;7.07;6.18;;;;;;;;;;5094548;28;20063;-68
2022/10/05 01:21:01;;;;;;;8.43;6.22;;;;;;;;;;5094512;28;20044;-68
2022/10/05 01:24:04;;;;;;;7.70;6.47;;;;;;;;;;5094499;28;20048;-68
2022/10/05 01:27:05;;;;;;;7.85;6.22;;;;;;;;;;5094677;28;20052;-68
2022/10/05 01:29:34;;;;;;;7.45;6.30;;;;;;;;;;5094587;28;20052;-68
2022/10/05 01:32:19;;;;;;;8.43;5.78;;;;;;;;;;5094130;28;20044;-68
2022/10/05 01:35:24;;;;;;;9.88;6.38;;;;;;;;;;5094328;28;20048;-68
2022/10/05 01:38:10;;;;;;;7.18;5.57;;;;;;;;;;5091728;28;20044;-68
2022/10/05 01:40:42;;;;;;;8.68;6.28;;;;;;;;;;5092648;28;20494;-68
2022/10/05 01:43:38;;;;;;;7.35;6.15;;;;;;;;;;5094252;28;20179;-68
2022/10/05 01:46:05;;;;;;;6.47;5.78;;;;;;;;;;5092424;28;20048;-68
2022/10/05 01:48:50;;;;;;;8.02;6.38;;;;;;;;;;5093601;28;20491;-68
2022/10/05 01:51:36;;;;;;;13.10;6.85;;;;;;;;;;5093773;28;20479;-68
2022/10/05 01:54:09;;;;;;;9.27;5.88;;;;;;;;;;5093918;28;20048;-68
2022/10/05 01:56:42;;;;;;;8.93;6.20;;;;;;;;;;5093920;28;20048;-68
2022/10/05 01:59:36;;;;;;;7.00;6.25;;;;;;;;;;5092413;28;20464;-68
2022/10/05 02:02:22;;;;;;;11.48;6.20;;;;;;;;;;5092712;28;20052;-68
2022/10/05 02:05:17;;;;;;;8.40;6.35;;;;;;;;;;5093641;28;20094;-68
2022/10/05 02:07:59;;;;;;;8.57;6.43;;;;;;;;;;5077224;28;20102;-68
2022/10/05 02:10:34;;;;;;;12.40;6.32;;;;;;;;;;5075734;28;20055;-68
2022/10/05 02:13:33;;;;;;;9.00;7.47;;;;;;;;;;5072107;28;20088;-68
2022/10/05 02:16:06;;;;;;;13.52;8.05;;;;;;;;;;5072675;28;20072;-68
2022/10/05 02:18:41;;;;;;;9.93;6.90;;;;;;;;;;5071906;28;20556;-68
2022/10/05 02:21:07;;;;;;;9.35;7.40;;;;;;;;;;5077169;28;20122;-68
2022/10/05 02:23:35;;;;;;;8.52;6.63;;;;;;;;;;5075456;28;20093;-68
2022/10/05 02:26:02;;;;;;;8.93;7.07;;;;;;;;;;5091999;28;20052;-68
2022/10/05 02:28:43;;;;;;;8.80;6.80;;;;;;;;;;5091785;28;20056;-68
2022/10/05 02:31:11;;;;;;;13.30;6.97;;;;;;;;;;5093178;28;20083;-68
2022/10/05 02:33:38;;;;;;;12.10;8.00;;;;;;;;;;5075136;28;20047;-68
2022/10/05 02:36:22;;;;;;;7.72;6.57;;;;;;;;;;5093138;28;20127;-67
2022/10/05 02:38:58;;;;;;;8.85;7.63;;;;;;;;;;5091550;28;20048;-67
2022/10/05 02:41:27;;;;;;;12.20;7.13;;;;;;;;;;5093052;28;20521;-67
2022/10/05 02:44:10;;;;;;;10.40;7.43;;;;;;;;;;5093264;28;20075;-67
2022/10/05 02:47:04;;;;;;;9.37;6.73;;;;;;;;;;5091852;28;20083;-67
2022/10/05 02:49:39;;;;;;;7.45;6.35;;;;;;;;;;5092574;28;20482;-67
2022/10/05 02:52:13;;;;;;;9.23;6.38;;;;;;;;;;5092969;28;20495;-67
2022/10/05 02:55:05;;;;;;;8.95;6.20;;;;;;;;;;5075201;28;20044;-67
2022/10/05 02:57:41;;;;;;;7.85;6.20;;;;;;;;;;5091044;28;20048;-67
2022/10/05 03:00:15;;;;;;;10.63;6.40;;;;;;;;;;5092322;28;20490;-67
2022/10/05 03:02:50;;;;;;;7.68;6.10;;;;;;;;;;5091507;28;20474;-67
2022/10/05 03:05:41;;;;;;;6.65;5.90;;;;;;;;;;5087140;28;20119;-67
2022/10/05 03:08:35;;;;;;;7.93;5.82;;;;;;;;;;5083732;28;20131;-67
2022/10/05 03:11:38;;;;;;;7.38;6.25;;;;;;;;;;5091171;28;20123;-67
2022/10/05 03:14:04;;;;;;;7.53;5.93;;;;;;;;;;5092425;28;20077;-67
2022/10/05 03:16:43;;;;;;;9.55;5.90;;;;;;;;;;5092318;28;20075;-67
2022/10/05 03:19:35;;;;;;;7.13;6.38;;;;;;;;;;5091168;28;20409;-67
2022/10/05 03:22:08;;;;;;;9.18;6.40;;;;;;;;;;5076737;28;20043;-67
2022/10/05 03:25:16;;;;;;;7.63;6.80;;;;;;;;;;5092133;28;20044;-67
2022/10/05 03:28:21;;;;;;;8.50;7.18;;;;;;;;;;5092213;28;20518;-67
2022/10/05 03:31:04;;;;;;;9.93;7.22;;;;;;;;;;5076885;28;20082;-67
2022/10/05 03:33:55;;;;;;;8.27;7.00;;;;;;;;;;5075438;28;20098;-67
2022/10/05 03:36:41;;;;;;;7.47;6.63;;;;;;;;;;5089715;28;20040;-67
2022/10/05 03:39:26;;;;;;;8.27;6.15;;;;;;;;;;5071035;28;20086;-67
2022/10/05 03:42:21;;;;;;;7.25;6.28;;;;;;;;;;5070801;28;20099;-67
2022/10/05 03:45:13;;;;;;;10.35;7.07;;;;;;;;;;5056400;28;20048;-67
2022/10/05 03:47:45;;;;;;;9.82;7.10;;;;;;;;;;5084795;28;20343;-67
2022/10/05 03:50:27;;;;;;;8.02;7.03;;;;;;;;;;5074209;28;20084;-67
2022/10/05 03:52:56;;;;;;;9.07;7.38;;;;;;;;;;5090961;28;20105;-67
2022/10/05 03:55:42;;;;;;;9.15;7.70;;;;;;;;;;5074232;28;20494;-67
2022/10/05 03:58:20;;;;;;;9.23;6.82;;;;;;;;;;5090678;28;20483;-67
2022/10/05 04:00:48;;;;;;;9.75;6.82;;;;;;;;;;5090641;28;20044;-67
2022/10/05 04:03:20;;;;;;;10.20;6.65;;;;;;;;;;5090993;28;20131;-67
2022/10/05 04:05:52;;;;;;;9.80;7.45;;;;;;;;;;5074289;28;20091;-67
2022/10/05 04:08:25;;;;;;;8.50;6.72;;;;;;;;;;5073796;28;20052;-67
2022/10/05 04:10:54;;;;;;;9.98;7.25;;;;;;;;;;5094520;28;20075;-67
2022/10/05 04:13:36;;;;;;;6.75;6.05;;;;;;;;;;5094803;28;20091;-67
2022/10/05 04:16:07;;;;;;;10.75;6.57;;;;;;;;;;5094558;28;20140;-67
2022/10/05 04:18:40;;;;;;;8.45;6.47;;;;;;;;;;5074281;28;20049;-67
2022/10/05 04:21:24;;;;;;;7.85;6.13;;;;;;;;;;5074087;28;20052;-67
2022/10/05 04:24:16;;;;;;;9.93;5.90;;;;;;;;;;5059191;28;20562;-67
2022/10/05 04:26:54;;;;;;;6.72;6.07;;;;;;;;;;5074162;28;20123;-67
2022/10/05 04:29:45;;;;;;;7.78;6.50;;;;;;;;;;5073832;28;20389;-67
2022/10/05 04:32:30;;;;;;;8.63;6.43;;;;;;;;;;5075212;28;20099;-67
2022/10/05 04:35:05;;;;;;;9.20;6.47;;;;;;;;;;5075292;28;20049;-67
2022/10/05 04:37:56;;;;;;;6.90;6.15;;;;;;;;;;5075110;28;20088;-67
2022/10/05 04:40:38;;;;;;;8.13;6.55;;;;;;;;;;5075195;28;20181;-67
2022/10/05 04:43:39;;;;;;;7.93;6.03;;;;;;;;;;5075116;28;20048;-67
2022/10/05 04:46:23;;;;;;;11.68;6.95;;;;;;;;;;5074969;28;20052;-67
2022/10/05 04:49:07;;;;;;;10.23;7.35;;;;;;;;;;5073802;28;20048;-67
2022/10/05 04:51:52;;;;;;;9.73;7.28;;;;;;;;;;5058969;28;20056;-67
2022/10/05 04:54:40;;;;;;;9.73;7.53;;;;;;;;;;5074945;28;20049;-67
2022/10/05 04:57:32;;;;;;;9.20;7.15;;;;;;;;;;5081241;28;20052;-67
2022/10/05 05:00:16;;;;;;;13.45;9.05;;;;;;;;;;5093755;28;20101;-66
2022/10/05 05:02:58;;;;;;;12.18;10.05;;;;;;;;;;5094465;28;20109;-67
2022/10/05 05:05:30;;;;;;;13.70;9.48;;;;;;;;;;5095787;28;20044;-67
2022/10/05 05:08:11;;;;;;;9.55;8.18;;;;;;;;;;5097912;28;20066;-66
2022/10/05 05:10:58;;;;;;;9.20;7.43;;;;;;;;;;5110983;28;20400;-67
2022/10/05 05:14:19;;;;;;;8.68;6.50;;;;;;;;;;5095283;28;20052;-67
2022/10/05 05:16:51;;;;;;;8.13;6.45;;;;;;;;;;5072108;28;20142;-67
2022/10/05 05:19:33;;;;;;;8.82;6.47;;;;;;;;;;5087504;28;20091;-67
2022/10/05 05:22:11;;;;;;;8.75;6.53;;;;;;;;;;5092556;28;20084;-67
2022/10/05 05:24:40;;;;;;;10.75;6.03;;;;;;;;;;5077530;28;20070;-67
2022/10/05 05:27:19;;;;;;;9.98;7.32;;;;;;;;;;5093130;28;20148;-66
2022/10/05 05:30:01;;;;;;;8.60;7.07;;;;;;;;;;5094475;28;20052;-66
2022/10/05 05:32:43;;;;;;;8.77;6.90;;;;;;;;;;5093720;28;20142;-66
2022/10/05 05:35:24;;;;;;;9.43;7.50;;;;;;;;;;5093511;28;20086;-66
2022/10/05 05:38:12;;;;;;;9.52;7.32;;;;;;;;;;5093098;28;20452;-66
2022/10/05 05:40:47;;;;;;;13.23;7.65;;;;;;;;;;5074284;28;20095;-66
2022/10/05 05:43:22;;;;;;;11.85;8.07;;;;;;;;;;5073270;28;20164;-67
2022/10/05 05:46:03;;;;;;;11.75;7.63;;;;;;;;;;5086422;28;20491;-67
2022/10/05 05:48:34;;;;;;;13.13;7.47;;;;;;;;;;5072528;28;20088;-67
2022/10/05 05:51:07;;;;;;;12.25;7.72;;;;;;;;;;5072478;28;20486;-67
2022/10/05 05:53:46;;;;;;;12.15;8.50;;;;;;;;;;5088966;28;20052;-67
2022/10/05 05:56:13;;;;;;;11.10;7.20;;;;;;;;;;5072619;28;20087;-67
2022/10/05 05:58:40;;;;;;;11.88;7.93;;;;;;;;;;5073440;28;20076;-67
2022/10/05 06:01:17;;;;;;;9.30;7.18;;;;;;;;;;5073477;28;20095;-67
2022/10/05 06:03:58;;;;;;;11.35;7.50;;;;;;;;;;5087315;28;20052;-67
2022/10/05 06:06:29;;;;;;;10.48;7.18;;;;;;;;;;5073562;28;20078;-67
2022/10/05 06:08:57;;;;;;;10.55;6.60;;;;;;;;;;5089088;28;20052;-67
2022/10/05 06:11:45;;;;;;;7.43;6.60;;;;;;;;;;5088703;28;20053;-67
2022/10/05 06:14:31;;;;;;;8.80;7.07;;;;;;;;;;5089004;28;20114;-67
2022/10/05 06:17:17;;;;;;;10.63;6.72;;;;;;;;;;5088848;28;20102;-67
2022/10/05 06:19:44;;;;;;;8.43;6.75;;;;;;;;;;5088555;28;20060;-66
2022/10/05 06:22:24;;;;;;;8.50;6.63;;;;;;;;;;5088941;28;20487;-66
2022/10/05 06:24:55;;;;;;;9.38;6.75;;;;;;;;;;5088897;28;20139;-66
2022/10/05 06:27:25;;;;;;;7.90;6.22;;;;;;;;;;5088777;28;20119;-66
2022/10/05 06:29:55;;;;;;;8.65;6.30;;;;;;;;;;5072717;28;20048;-67
2022/10/05 06:32:29;;;;;;;9.13;6.57;;;;;;;;;;5092366;28;20503;-65
2022/10/05 06:35:23;;;;;;;8.57;6.57;;;;;;;;;;5092292;28;20340;-65
2022/10/05 06:37:59;;;;;;;8.00;6.82;;;;;;;;;;5077302;28;20090;-65
2022/10/05 06:40:30;;;;;;;10.48;7.45;;;;;;;;;;5092300;28;20087;-66
2022/10/05 06:43:34;;;;;;;10.48;7.65;;;;;;;;;;5093105;28;20121;-66
2022/10/05 06:46:17;;;;;;;9.55;7.35;;;;;;;;;;5092888;28;20040;-66
2022/10/05 06:48:59;;;;;;;9.25;7.30;;;;;;;;;;5091697;28;20044;-65
2022/10/05 06:51:34;;;;;;;13.05;8.15;;;;;;;;;;5090946;28;20048;-66
2022/10/05 06:54:26;;;;;;;9.88;7.30;;;;;;;;;;5089668;28;20083;-66
2022/10/05 06:57:02;;;;;;;11.30;8.77;;;;;;;;;;5076200;28;20076;-66
2022/10/05 06:59:48;;;;;;;13.05;8.32;;;;;;;;;;5090808;28;20119;-66
2022/10/05 07:02:33;;;;;;;10.20;7.90;;;;;;;;;;5089704;28;20105;-66
2022/10/05 07:05:27;;;;;;;10.82;8.00;;;;;;;;;;5090573;28;20105;-65
2022/10/05 07:07:54;;;;;;;11.32;8.13;;;;;;;;;;5089321;28;20040;-67
2022/10/05 07:10:28;;;;;;;9.68;7.22;;;;;;;;;;5088966;28;20091;-67
2022/10/05 07:13:38;;;;;;;15.05;7.97;;;;;;;;;;5090620;28;20048;-66
2022/10/05 07:16:15;;;;;;;8.38;7.45;;;;;;;;;;5089878;28;20134;-66
2022/10/05 07:19:19;;;;;;;10.07;6.53;;;;;;;;;;5072630;28;20083;-67
2022/10/05 07:22:01;;;;;;;8.93;6.25;;;;;;;;;;5087054;28;20498;-67
2022/10/05 07:24:48;;;;;;;6.95;6.25;;;;;;;;;;5090219;28;20051;-67
2022/10/05 07:27:22;;;;;;;8.05;6.18;;;;;;;;;;5088892;28;20056;-67
2022/10/05 07:29:50;;;;;;;12.13;7.25;;;;;;;;;;5072225;28;20498;-67
2022/10/05 07:32:38;;;;;;;9.27;7.38;;;;;;;;;;5088596;28;20051;-67
2022/10/05 07:38:48;;;;;;;9.52;6.53;;;;;;;;;;5089879;28;20495;-68
2022/10/05 07:41:28;;;;;;;8.63;6.43;;;;;;;;;;5090288;28;20047;-67
2022/10/05 07:43:54;;;;;;;7.85;6.68;;;;;;;;;;5088553;28;20083;-67
2022/10/05 07:46:35;;;;;;;7.50;6.70;;;;;;;;;;5097590;28;20056;-69
2022/10/05 07:49:04;;;;;;;9.20;6.63;;;;;;;;;;5113728;28;20048;-69
2022/10/05 07:51:40;;;;;;;13.20;7.05;;;;;;;;;;5105068;28;20040;-70
2022/10/05 07:54:25;;;;;;;10.20;6.57;;;;;;;;;;5100768;28;20144;-72
2022/10/05 07:57:15;;;;;;;10.40;6.80;;;;;;;;;;5094451;28;20045;-71
2022/10/05 07:59:55;;;;;;;9.60;7.60;;;;;;;;;;5095862;28;20066;-67
2022/10/05 08:02:26;;;;;;;11.13;7.00;;;;;;;;;;5093252;28;20522;-71
2022/10/05 08:04:55;;;;;;;8.70;6.47;;;;;;;;;;5099724;28;20040;-69
2022/10/05 08:07:22;;;;;;;7.68;5.97;;;;;;;;;;5094498;28;20040;-69
2022/10/05 08:09:58;;;;;;;7.18;5.45;;;;;;;;;;5113023;28;20036;-69
2022/10/05 08:12:47;;;;;;;7.43;5.78;;;;;;;;;;5092164;28;20036;-72
2022/10/05 08:15:19;;;;;;;5.68;5.05;;;;;;;;;;5091753;28;20071;-71
2022/10/05 08:18:10;;;;;;;6.63;5.77;;;;;;;;;;5073978;28;20048;-73
2022/10/05 08:20:53;;;;;;;6.85;5.32;;;;;;;;;;5100698;28;20029;-71
2022/10/05 08:23:39;;;;;;;9.23;5.78;;;;;;;;;;5100716;28;20029;-72
2022/10/05 08:26:25;;;;;;;7.30;5.35;;;;;;;;;;5104145;28;20055;-68
2022/10/05 08:29:10;;;;;;;6.03;5.25;;;;;;;;;;5098236;28;20052;-71
2022/10/05 08:31:40;;;;;;;8.23;5.53;;;;;;;;;;5097530;28;20068;-70
2022/10/05 08:34:10;;;;;;;6.40;4.88;;;;;;;;;;5097921;28;20055;-70
2022/10/05 08:36:54;;;;;;;6.38;5.00;;;;;;;;;;5082867;28;20048;-71
2022/10/05 08:39:23;;;;;;;7.20;4.78;;;;;;;;;;5080570;28;20422;-69
2022/10/05 08:42:01;;;;;;;5.45;4.90;;;;;;;;;;5057435;28;20086;-69
2022/10/05 08:44:37;;;;;;;8.18;5.20;;;;;;;;;;5058831;28;20048;-66
2022/10/05 08:47:22;;;;;;;5.25;4.75;;;;;;;;;;5079701;28;20053;-66
2022/10/05 08:50:11;;;;;;;5.93;4.82;;;;;;;;;;5094764;28;20062;-71
2022/10/05 08:52:53;;;;;;;5.25;4.30;;;;;;;;;;5106032;27;20047;-69
2022/10/05 08:55:57;;;;;;;4.78;4.38;;;;;;;;;;5078240;28;20477;-67
2022/10/05 08:58:42;;;;;;;6.38;4.72;;;;;;;;;;5079942;28;20507;-72
2022/10/05 09:01:17;;;;;;;4.57;4.10;;;;;;;;;;5080853;28;20041;-72
2022/10/05 09:03:50;;;;;;;6.63;4.63;;;;;;;;;;5078832;28;20055;-71
2022/10/05 09:06:42;;;;;;;11.10;4.72;;;;;;;;;;5079634;28;20080;-74
2022/10/05 09:09:36;;;;;;;5.38;4.55;;;;;;;;;;5084361;28;20044;-71
2022/10/05 09:12:31;;;;;;;4.78;4.18;;;;;;;;;;5083893;28;20554;-70
2022/10/05 09:15:18;;;;;;;5.70;4.18;;;;;;;;;;5079554;28;20171;-67
2022/10/05 09:18:28;;;;;;;5.03;4.47;;;;;;;;;;5080794;28;20093;-66
2022/10/05 09:21:02;;;;;;;;;;;;;;;;;;5086622;28;20078;-66
2022/10/05 09:23:42;;;;;;;5.70;4.07;;;;;;;;;;5081465;28;19977;-66
2022/10/05 09:26:33;;;;;;;5.50;4.00;;;;;;;;;;5080763;28;20131;-66
2022/10/05 09:29:37;;;;;;;4.32;3.47;;;;;;;;;;5081593;28;20053;-66
2022/10/05 09:32:05;;;;;;;;;;;;;;;;;;5079192;28;20045;-65
2022/10/05 09:34:48;;;;;;;7.65;3.45;;;;;;;;;;5079667;28;19920;-66
2022/10/05 09:37:37;;;;;;;4.18;3.72;;;;;;;;;;5063253;28;20105;-66
2022/10/05 09:40:30;;;;;;;8.18;3.90;;;;;;;;;;5081739;28;20535;-66
2022/10/05 09:43:21;;;;;;;5.40;3.70;;;;;;;;;;5080497;28;20105;-66
2022/10/05 09:46:29;;;;;;;4.78;3.88;;;;;;;;;;5079679;28;20098;-66
2022/10/05 09:49:06;;;;;;;4.50;3.67;;;;;;;;;;5070877;28;20104;-66
2022/10/05 09:51:44;;;;;;;4.55;2.97;;;;;;;;;;5077880;28;20094;-66
2022/10/05 09:54:44;;;;;;;3.05;2.85;;;;;;;;;;5080874;28;20086;-66
2022/10/05 09:57:35;;;;;;;3.33;3.03;;;;;;;;;;5081093;28;20151;-66
2022/10/05 10:00:22;;;;;;;3.45;3.00;;;;;;;;;;5087022;28;20469;-66
2022/10/05 10:03:07;;;;;;;6.20;3.03;;;;;;;;;;5075216;28;20049;-66
2022/10/05 10:06:11;;;;;;;4.68;3.00;;;;;;;;;;5079425;28;20048;-66
2022/10/05 10:09:05;;;;;;;5.32;2.90;;;;;;;;;;5059717;28;20404;-66
2022/10/05 10:11:57;;;;;;;3.45;2.80;;;;;;;;;;5074139;28;20119;-66
2022/10/05 10:14:23;;;;;;;5.93;2.92;;;;;;;;;;5081886;28;20121;-66
2022/10/05 10:17:07;;;;;;;3.92;3.10;;;;;;;;;;5076441;28;20101;-67
2022/10/05 10:20:14;;;;;;;6.65;2.72;;;;;;;;;;5078132;28;20126;-66
2022/10/05 10:22:53;;;;;;;5.75;2.55;;;;;;;;;;5070474;28;20204;-66
2022/10/05 10:25:46;;;;;;;5.53;2.60;;;;;;;;;;5079225;28;20094;-69
2022/10/05 10:28:16;;;;;;;;;;;;;;;;;;5061325;28;20400;-70
2022/10/05 10:30:43;;;;;;;7.07;2.28;;;;;;;;;;5081214;28;19924;-70
2022/10/05 10:33:46;;;;;;;3.95;2.55;;;;;;;;;;5082055;28;20044;-71
2022/10/05 10:36:16;;;;;;;4.55;2.40;;;;;;;;;;5076802;28;20165;-71
2022/10/05 10:39:18;;;;;;;5.30;2.92;;;;;;;;;;5083680;28;20052;-70
2022/10/05 10:42:12;;;;;;;3.00;2.15;;;;;;;;;;5066802;28;20396;-73
2022/10/05 10:45:01;;;;;;;3.72;2.10;;;;;;;;;;5086628;28;20068;-69
2022/10/05 10:47:37;;;;;;;4.82;2.40;;;;;;;;;;5080690;28;20440;-71
2022/10/05 10:50:27;;;;;;;4.28;2.15;;;;;;;;;;5081562;28;20442;-73
2022/10/05 10:53:01;;;;;;;8.40;2.63;;;;;;;;;;5083448;28;20098;-73
2022/10/05 10:55:40;;;;;;;3.08;2.20;;;;;;;;;;5079025;28;20277;-67
2022/10/05 10:58:25;;;;;;;3.90;2.10;;;;;;;;;;5080208;28;20109;-67
2022/10/05 11:00:57;;;;;;;5.47;1.80;;;;;;;;;;5079314;28;20079;-68
2022/10/05 11:03:33;;;;;;;2.45;1.70;;;;;;;;;;5083285;28;20399;-68
2022/10/05 11:06:37;;;;;;;5.03;1.90;;;;;;;;;;5082002;28;20119;-69
2022/10/05 11:09:33;;;;;;;3.88;2.05;;;;;;;;;;5081841;28;20055;-69
2022/10/05 11:12:34;;;;;;;2.13;1.40;;;;;;;;;;5073909;28;20124;-66
2022/10/05 11:15:28;;;;;;;4.38;1.70;;;;;;;;;;5083482;28;20524;-73
2022/10/05 11:17:57;;;;;;;2.15;1.95;;;;;;;;;;5080810;28;20044;-67
2022/10/05 11:20:57;;;;;;;2.22;1.60;;;;;;;;;;5092618;22;20043;-71
2022/10/05 11:23:27;;;;;;;3.85;1.70;;;;;;;;;;5061727;28;20048;-69
2022/10/05 11:26:14;;;;;;;2.58;1.92;;;;;;;;;;5062470;28;20052;-71
2022/10/05 11:29:06;;;;;;;1.67;1.58;;;;;;;;;;5064959;28;20476;-70
2022/10/05 11:31:39;;;;;;;3.92;1.60;;;;;;;;;;5042770;28;20049;-75
2022/10/05 11:34:10;;;;;;;2.63;1.60;;;;;;;;;;5044026;28;20049;-69
2022/10/05 11:37:15;;;;;;;2.28;1.73;;;;;;;;;;5041201;28;20045;-69
2022/10/05 11:39:48;;;;;;;2.03;1.60;;;;;;;;;;5039728;28;20053;-67
2022/10/05 11:42:28;;;;;;;3.45;1.40;;;;;;;;;;5055931;28;20106;-69
2022/10/05 11:45:20;;;;;;;1.95;1.42;;;;;;;;;;5038682;28;20049;-70
2022/10/05 11:48:09;;;;;;;2.78;1.88;;;;;;;;;;5044167;28;20393;-69
2022/10/05 11:50:45;;;;;;;2.42;1.48;;;;;;;;;;5039775;28;20085;-70
2022/10/05 11:53:14;;;;;;;2.80;1.98;;;;;;;;;;5038047;28;20144;-69
2022/10/05 11:55:43;;;;;;;3.00;1.40;;;;;;;;;;5038772;28;20049;-70
2022/10/05 11:58:10;;;;;;;4.63;1.83;;;;;;;;;;5022113;28;20830;-70
2022/10/05 12:00:42;;;;;;;2.67;1.60;;;;;;;;;;5045713;28;20511;-69
2022/10/05 12:03:31;;;;;;;;;;;;;;;;;;5039818;28;20128;-70
2022/10/05 12:06:24;;;;;;;2.28;1.35;;;;;;;;;;5041044;28;20007;-70
2022/10/05 12:09:22;;;;;;;1.40;1.27;;;;;;;;;;5042328;28;20083;-70
2022/10/05 12:12:21;;;;;;;1.88;1.58;;;;;;;;;;5039834;28;20091;-70
2022/10/05 12:14:53;;;;;;;4.15;1.70;;;;;;;;;;5036086;28;20124;-70
2022/10/05 12:17:41;;;;;;;;;;;;;;;;;;5041667;28;20071;-70
2022/10/05 12:20:18;;;;;;;1.67;1.20;;;;;;;;;;5044062;28;19921;-70
2022/10/05 12:23:23;;;;;;;1.08;0.98;;;;;;;;;;5041655;28;20243;-70
2022/10/05 12:25:59;;;;;;;2.05;1.48;;;;;;;;;;5042876;28;20050;-70
2022/10/05 12:28:57;;;;;;;1.67;1.08;;;;;;;;;;5029914;28;20113;-70
2022/10/05 12:31:32;;;;;;;3.15;1.20;;;;;;;;;;5042888;28;20401;-70
2022/10/05 12:34:02;;;;;;;2.22;1.27;;;;;;;;;;5041454;28;20456;-69
2022/10/05 12:36:39;;;;;;;1.45;1.00;;;;;;;;;;5041559;28;20045;-70
2022/10/05 12:39:55;;;;;;;1.30;1.20;;;;;;;;;;5044496;28;20060;-69
2022/10/05 12:42:42;;;;;;;2.00;1.25;;;;;;;;;;5043351;28;20124;-70
2022/10/05 12:45:18;;;;;;;1.85;1.02;;;;;;;;;;5045425;28;20050;-69
2022/10/05 12:47:48;;;;;;;1.20;1.10;;;;;;;;;;5044402;28;20049;-71
2022/10/05 12:50:22;;;;;;;1.42;0.93;;;;;;;;;;5039184;28;20057;-70
2022/10/05 12:53:03;;;;;;;1.33;1.23;;;;;;;;;;5046608;28;20076;-69
2022/10/05 12:55:52;;;;;;;1.77;1.67;;;;;;;;;;5027299;28;20046;-73
2022/10/05 12:58:47;;;;;;;3.00;1.02;;;;;;;;;;5048574;28;20543;-68
2022/10/05 13:01:29;;;;;;;1.52;0.88;;;;;;;;;;5040371;28;20126;-71
2022/10/05 13:04:23;;;;;;;5.32;0.90;;;;;;;;;;5048586;28;20063;-71
2022/10/05 13:07:14;;;;;;;3.08;1.17;;;;;;;;;;5040821;28;20095;-69
2022/10/05 13:09:59;;;;;;;2.30;1.27;;;;;;;;;;5043755;28;20493;-67
2022/10/05 13:12:34;;;;;;;1.88;0.95;;;;;;;;;;5044334;28;20055;-70
2022/10/05 13:15:04;;;;;;;1.65;0.90;;;;;;;;;;5042544;28;20045;-70
2022/10/05 13:17:43;;;;;;;0.90;0.82;;;;;;;;;;5042121;28;20464;-68
2022/10/05 13:20:31;;;;;;;1.15;1.00;;;;;;;;;;5047108;28;20107;-72
2022/10/05 13:23:24;;;;;;;1.23;0.80;;;;;;;;;;5044958;28;20106;-71
2022/10/05 13:26:07;;;;;;;0.90;0.70;;;;;;;;;;5044687;28;20045;-70
2022/10/05 13:29:00;;;;;;;3.08;0.80;;;;;;;;;;5028241;28;20070;-68
2022/10/05 13:31:33;;;;;;;0.93;0.55;;;;;;;;;;5018800;28;20078;-69
2022/10/05 13:34:06;;;;;;;1.35;0.90;;;;;;;;;;5000551;28;20483;-68
2022/10/05 13:37:04;;;;;;;1.35;0.90;;;;;;;;;;5019098;28;20136;-67
2022/10/05 13:39:46;;;;;;;1.05;0.85;;;;;;;;;;5019332;28;20077;-66
2022/10/05 13:42:27;;;;;;;0.90;0.90;;;;;;;;;;5019066;28;20220;-73
2022/10/05 13:45:18;;;;;;;0.98;0.70;;;;;;;;;;5037564;28;20103;-71
2022/10/05 13:48:04;;;;;;;2.25;0.80;;;;;;;;;;5020522;28;20049;-72
2022/10/05 13:50:33;;;;;;;1.73;0.65;;;;;;;;;;5019693;28;20077;-71
2022/10/05 13:53:22;;;;;;;2.28;0.65;;;;;;;;;;4999613;28;20050;-71
2022/10/05 13:56:03;;;;;;;3.20;0.68;;;;;;;;;;5019343;28;20451;-72
2022/10/05 13:58:53;;;;;;;1.50;0.70;;;;;;;;;;5018317;28;20045;-69
2022/10/05 14:01:27;;;;;;;0.90;0.77;;;;;;;;;;5020616;28;20480;-73
2022/10/05 14:04:17;;;;;;;2.20;0.70;;;;;;;;;;5020014;28;20111;-74
2022/10/05 14:06:45;;;;;;;3.20;1.02;;;;;;;;;;5024328;28;20080;-73
2022/10/05 14:09:18;;;;;;;0.70;0.68;;;;;;;;;;5033871;28;20209;-72
2022/10/05 14:12:03;;;;;;;2.78;1.13;;;;;;;;;;5020932;28;20068;-70
2022/10/05 14:14:31;;;;;;;2.75;0.50;;;;;;;;;;5024999;28;20048;-70
2022/10/05 14:16:59;;;;;;;2.58;0.60;;;;;;;;;;5023702;28;20111;-69
2022/10/05 14:19:34;;;;;;;5.10;1.40;;;;;;;;;;5018850;28;20073;-70
2022/10/05 14:22:11;;;;;;;2.58;1.40;;;;;;;;;;5005642;28;20077;-69
2022/10/05 14:24:47;;;;;;;8.60;2.00;;;;;;;;;;5022352;28;20492;-71
2022/10/05 14:27:27;;;;;;;6.65;1.50;;;;;;;;;;5020054;28;20620;-69
2022/10/05 14:29:59;;;;;;;3.20;1.52;;;;;;;;;;5022181;28;20053;-69
2022/10/05 14:32:30;;;;;;;3.58;1.45;;;;;;;;;;5022317;28;20160;-69
2022/10/05 14:35:11;;;;;;;9.23;1.70;;;;;;;;;;5020549;28;20549;-68
2022/10/05 14:37:49;;;;;;;3.25;1.70;;;;;;;;;;5017789;28;20092;-69
2022/10/05 14:40:35;;;;;;;2.30;1.50;;;;;;;;;;5018379;28;20045;-71
2022/10/05 14:43:14;;;;;;;4.03;1.83;;;;;;;;;;5016751;28;20140;-71
2022/10/05 14:46:00;;;;;;;4.03;1.40;;;;;;;;;;5017507;28;20046;-70
2022/10/05 14:48:28;;;;;;;1.92;1.35;;;;;;;;;;5016095;28;20053;-67
2022/10/05 14:50:55;;;;;;;6.80;2.15;;;;;;;;;;5014409;28;20049;-68
2022/10/05 14:53:23;;;;;;;4.20;1.90;;;;;;;;;;5016088;28;20053;-68
2022/10/05 14:56:00;;;;;;;5.60;1.70;;;;;;;;;;5018502;28;20120;-70
2022/10/05 14:58:35;;;;;;;2.30;1.80;;;;;;;;;;5019634;28;20045;-70
2022/10/05 15:01:29;;;;;;;3.55;1.63;;;;;;;;;;5016397;28;20555;-70
2022/10/05 15:04:19;;;;;;;3.65;1.95;;;;;;;;;;5016450;28;20050;-71
2022/10/05 15:07:17;;;;;;;4.28;1.80;;;;;;;;;;5014562;28;20072;-70
2022/10/05 15:10:08;;;;;;;4.22;1.95;;;;;;;;;;5012266;28;20061;-70
2022/10/05 15:12:48;;;;;;;3.67;1.92;;;;;;;;;;5014847;28;20092;-69
2022/10/05 15:15:44;;;;;;;2.83;1.50;;;;;;;;;;5018985;28;20056;-70
2022/10/05 15:18:33;;;;;;;5.60;1.95;;;;;;;;;;5017036;28;20508;-69
2022/10/05 15:21:27;;;;;;;3.25;1.73;;;;;;;;;;5014200;28;20427;-70
2022/10/05 15:24:07;;;;;;;2.63;1.70;;;;;;;;;;5021847;28;20045;-68
2022/10/05 15:26:49;;;;;;;3.45;1.90;;;;;;;;;;5017670;28;20123;-68
2022/10/05 15:29:30;;;;;;;2.65;1.90;;;;;;;;;;5015920;28;20042;-67
2022/10/05 15:32:03;;;;;;;3.17;2.10;;;;;;;;;;5014141;28;20054;-70
2022/10/05 15:35:12;;;;;;;2.40;1.75;;;;;;;;;;5018833;28;20053;-71
2022/10/05 15:37:43;;;;;;;3.97;1.88;;;;;;;;;;5014416;28;20132;-70
2022/10/05 15:40:48;;;;;;;4.15;2.22;;;;;;;;;;4999156;28;20100;-70
2022/10/05 15:43:18;;;;;;;2.10;1.83;;;;;;;;;;4992733;28;20133;-70
2022/10/05 15:46:11;;;;;;;2.95;1.65;;;;;;;;;;5015407;28;20136;-69
2022/10/05 15:48:44;;;;;;;;;;;;;;;;;;5016752;28;20136;-70
2022/10/05 15:51:35;;;;;;;5.03;2.22;;;;;;;;;;5015684;28;20347;-71
2022/10/05 15:57:24;;;;;;;2.13;1.92;;;;;;;;;;5018344;28;20053;-69
2022/10/05 16:00:09;;;;;;;9.13;3.03;;;;;;;;;;5008963;28;20089;-70
2022/10/05 16:02:40;;;;;;;4.38;1.95;;;;;;;;;;5015572;28;20057;-70
2022/10/05 16:08:54;;;;;;;4.35;2.03;;;;;;;;;;5006684;28;20144;-70
2022/10/05 16:11:36;;;;;;;3.88;2.30;;;;;;;;;;5020795;28;20141;-71
2022/10/05 16:14:26;;;;;;;4.68;2.33;;;;;;;;;;5022459;28;20073;-70
2022/10/05 16:17:23;;;;;;;2.95;1.90;;;;;;;;;;5021158;28;20355;-72
2022/10/05 16:19:52;;;;;;;3.55;2.58;;;;;;;;;;5019040;28;20055;-72